createdAt,value
2022-09-12T00:01:08.823Z,17.01
2022-09-12T00:02:12.111Z,17.00
2022-09-12T00:03:14.741Z,16.99
2022-09-12T00:04:16.393Z,17.00
2022-09-12T00:05:19.064Z,16.98
2022-09-12T00:06:23.615Z,16.98
2022-09-12T00:07:26.122Z,16.96
2022-09-12T00:08:27.645Z,16.97
2022-09-12T00:09:30.129Z,16.97
2022-09-12T00:10:33.004Z,16.99
2022-09-12T00:11:37.307Z,16.98
2022-09-12T00:12:38.879Z,16.98
2022-09-12T00:13:43.220Z,16.99
2022-09-12T00:14:44.788Z,16.97
2022-09-12T00:15:47.273Z,16.97
2022-09-12T00:16:48.860Z,16.96
2022-09-12T00:17:51.629Z,16.97
2022-09-12T00:18:54.516Z,16.96
2022-09-12T00:19:56.559Z,16.96
2022-09-12T00:21:03.809Z,16.96
2022-09-12T00:22:05.343Z,16.94
2022-09-12T00:23:07.833Z,16.94
2022-09-12T00:24:10.651Z,16.94
2022-09-12T00:25:13.369Z,16.93
2022-09-12T00:26:17.553Z,16.93
2022-09-12T00:27:20.271Z,16.92
2022-09-12T00:28:21.807Z,16.91
2022-09-12T00:29:24.319Z,16.91
2022-09-12T00:30:25.952Z,16.90
2022-09-12T00:31:28.812Z,16.90
2022-09-12T00:32:30.982Z,16.89
2022-09-12T00:33:33.571Z,16.87
2022-09-12T00:34:36.036Z,16.86
2022-09-12T00:35:44.090Z,16.85
2022-09-12T00:36:45.678Z,16.84
2022-09-12T00:37:48.199Z,16.82
2022-09-12T00:38:50.542Z,16.81
2022-09-12T00:39:53.112Z,16.79
2022-09-12T00:40:54.670Z,16.79
2022-09-12T00:41:58.494Z,16.79
2022-09-12T00:43:00.028Z,16.77
2022-09-12T00:44:23.619Z,16.79
2022-09-12T00:45:28.526Z,16.79
2022-09-12T00:46:38.928Z,16.79
2022-09-12T00:47:41.761Z,16.78
2022-09-12T00:48:48.345Z,16.78
2022-09-12T00:49:55.394Z,16.77
2022-09-12T00:50:57.925Z,16.76
2022-09-12T00:52:05.558Z,16.75
2022-09-12T00:53:09.897Z,16.75
2022-09-12T00:54:16.555Z,16.77
2022-09-12T00:55:22.379Z,16.77
2022-09-12T00:56:24.447Z,16.76
2022-09-12T00:57:32.945Z,16.75
2022-09-12T00:58:39.923Z,16.74
2022-09-12T00:59:48.061Z,16.73
2022-09-12T01:00:50.631Z,16.73
2022-09-12T01:01:53.598Z,16.69
2022-09-12T01:02:58.835Z,16.69
2022-09-12T01:04:02.080Z,16.67
2022-09-12T01:05:05.647Z,16.66
2022-09-12T01:06:14.270Z,16.65
2022-09-12T01:07:16.295Z,16.65
2022-09-12T01:08:18.923Z,16.64
2022-09-12T01:09:23.001Z,16.62
2022-09-12T01:10:25.662Z,16.63
2022-09-12T01:11:28.341Z,16.63
2022-09-12T01:12:33.041Z,16.64
2022-09-12T01:13:35.552Z,16.63
2022-09-12T01:14:39.162Z,16.62
2022-09-12T01:15:42.085Z,16.62
2022-09-12T01:16:45.737Z,16.61
2022-09-12T01:18:01.836Z,16.62
2022-09-12T01:19:20.112Z,16.61
2022-09-12T01:21:00.102Z,16.61
2022-09-12T01:22:18.401Z,16.60
2022-09-12T01:24:05.916Z,16.60
2022-09-12T01:25:25.494Z,16.57
2022-09-12T01:27:04.610Z,16.58
2022-09-12T01:28:43.228Z,16.58
2022-09-12T01:30:24.686Z,16.56
2022-09-12T01:31:35.324Z,16.56
2022-09-12T01:32:53.353Z,16.56
2022-09-12T01:34:04.501Z,16.56
2022-09-12T01:35:20.980Z,16.55
2022-09-12T01:36:35.750Z,16.55
2022-09-12T01:37:44.601Z,16.55
2022-09-12T01:38:50.896Z,16.55
2022-09-12T01:40:00.401Z,16.56
2022-09-12T01:41:12.666Z,16.57
2022-09-12T01:42:21.338Z,16.58
2022-09-12T01:43:27.202Z,16.58
2022-09-12T01:44:37.468Z,16.58
2022-09-12T01:45:44.563Z,16.58
2022-09-12T01:46:53.787Z,16.57
2022-09-12T01:48:02.163Z,16.57
2022-09-12T01:49:12.550Z,16.57
2022-09-12T01:50:19.609Z,16.57
2022-09-12T01:51:26.268Z,16.56
2022-09-12T01:52:32.796Z,16.55
2022-09-12T01:53:39.387Z,16.54
2022-09-12T01:54:47.217Z,16.54
2022-09-12T01:55:52.186Z,16.53
2022-09-12T01:57:00.600Z,16.52
2022-09-12T01:58:07.672Z,16.51
2022-09-12T01:59:15.980Z,16.51
2022-09-12T02:00:18.136Z,16.50
2022-09-12T02:01:25.383Z,16.49
2022-09-12T02:02:33.968Z,16.49
2022-09-12T02:03:44.922Z,16.50
2022-09-12T02:04:52.648Z,16.50
2022-09-12T02:06:00.383Z,16.51
2022-09-12T02:07:08.180Z,16.52
2022-09-12T02:08:15.017Z,16.52
2022-09-12T02:09:22.616Z,16.51
2022-09-12T02:10:33.832Z,16.52
2022-09-12T02:11:41.052Z,16.54
2022-09-12T02:12:47.200Z,16.53
2022-09-12T02:13:55.153Z,16.54
2022-09-12T02:15:03.260Z,16.54
2022-09-12T02:16:11.214Z,16.55
2022-09-12T02:17:16.512Z,16.55
2022-09-12T02:18:22.010Z,16.54
2022-09-12T02:19:26.695Z,16.54
2022-09-12T02:20:47.459Z,16.55
2022-09-12T02:21:53.652Z,16.54
2022-09-12T02:22:58.469Z,16.55
2022-09-12T02:24:03.053Z,16.55
2022-09-12T02:25:09.021Z,16.54
2022-09-12T02:26:18.863Z,16.53
2022-09-12T02:27:24.946Z,16.52
2022-09-12T02:28:30.914Z,16.52
2022-09-12T02:29:33.689Z,16.51
2022-09-12T02:30:43.051Z,16.52
2022-09-12T02:31:47.977Z,16.52
2022-09-12T02:32:58.276Z,16.51
2022-09-12T02:34:10.864Z,16.51
2022-09-12T02:35:22.149Z,16.50
2022-09-12T02:36:34.480Z,16.50
2022-09-12T02:37:48.597Z,16.48
2022-09-12T02:38:51.685Z,16.48
2022-09-12T02:39:55.301Z,16.47
2022-09-12T02:40:57.973Z,16.48
2022-09-12T02:42:01.757Z,16.47
2022-09-12T02:43:06.357Z,16.46
2022-09-12T02:44:07.916Z,16.46
2022-09-12T02:45:12.367Z,16.46
2022-09-12T02:46:20.361Z,16.45
2022-09-12T02:47:29.807Z,16.46
2022-09-12T02:48:35.997Z,16.45
2022-09-12T02:49:39.983Z,16.45
2022-09-12T02:50:42.227Z,16.44
2022-09-12T02:51:45.905Z,16.45
2022-09-12T02:52:48.520Z,16.45
2022-09-12T02:53:51.550Z,16.44
2022-09-12T02:54:54.661Z,16.43
2022-09-12T02:55:57.740Z,16.43
2022-09-12T02:56:59.286Z,16.42
2022-09-12T02:58:04.175Z,16.42
2022-09-12T02:59:09.071Z,16.41
2022-09-12T03:00:12.924Z,16.40
2022-09-12T03:01:26.306Z,16.40
2022-09-12T03:02:39.971Z,16.40
2022-09-12T03:04:05.789Z,16.38
2022-09-12T03:05:22.252Z,16.37
2022-09-12T03:06:33.159Z,16.37
2022-09-12T03:08:05.786Z,16.35
2022-09-12T03:09:17.293Z,16.34
2022-09-12T03:10:24.881Z,16.34
2022-09-12T03:11:52.192Z,16.33
2022-09-12T03:13:08.703Z,16.32
2022-09-12T03:14:26.582Z,16.31
2022-09-12T03:15:40.075Z,16.30
2022-09-12T03:16:49.684Z,16.30
2022-09-12T03:18:05.525Z,16.29
2022-09-12T03:19:16.438Z,16.28
2022-09-12T03:20:29.288Z,16.29
2022-09-12T03:21:37.216Z,16.27
2022-09-12T03:22:53.400Z,16.28
2022-09-12T03:24:05.425Z,16.27
2022-09-12T03:25:17.476Z,16.26
2022-09-12T03:26:27.062Z,16.25
2022-09-12T03:27:33.873Z,16.25
2022-09-12T03:28:36.500Z,16.24
2022-09-12T03:29:41.609Z,16.24
2022-09-12T03:30:45.221Z,16.23
2022-09-12T03:31:51.496Z,16.24
2022-09-12T03:32:54.828Z,16.23
2022-09-12T03:33:57.304Z,16.24
2022-09-12T03:34:59.027Z,16.23
2022-09-12T03:36:03.359Z,16.23
2022-09-12T03:37:06.601Z,16.23
2022-09-12T03:38:08.600Z,16.22
2022-09-12T03:39:11.153Z,16.23
2022-09-12T03:40:12.806Z,16.22
2022-09-12T03:41:15.317Z,16.23
2022-09-12T03:42:17.897Z,16.23
2022-09-12T03:43:20.643Z,16.23
2022-09-12T03:44:22.761Z,16.21
2022-09-12T03:45:25.309Z,16.23
2022-09-12T03:46:26.911Z,16.21
2022-09-12T03:47:29.854Z,16.21
2022-09-12T03:48:31.738Z,16.22
2022-09-12T03:49:34.236Z,16.22
2022-09-12T03:50:35.843Z,16.21
2022-09-12T03:51:39.841Z,16.21
2022-09-12T03:52:41.368Z,16.21
2022-09-12T03:53:44.365Z,16.21
2022-09-12T03:54:45.896Z,16.22
2022-09-12T03:55:48.400Z,16.22
2022-09-12T03:56:49.936Z,16.22
2022-09-12T03:57:53.818Z,16.22
2022-09-12T03:58:55.392Z,16.23
2022-09-12T03:59:57.978Z,16.22
2022-09-12T04:00:59.730Z,16.22
2022-09-12T04:02:02.745Z,16.22
2022-09-12T04:03:04.324Z,16.22
2022-09-12T04:04:06.846Z,16.21
2022-09-12T04:05:08.992Z,16.21
2022-09-12T04:06:14.701Z,16.20
2022-09-12T04:07:17.624Z,16.21
2022-09-12T04:08:20.117Z,16.20
2022-09-12T04:09:21.718Z,16.19
2022-09-12T04:10:24.197Z,16.19
2022-09-12T04:11:25.746Z,16.19
2022-09-12T04:12:28.236Z,16.18
2022-09-12T04:13:29.758Z,16.19
2022-09-12T04:14:32.266Z,16.19
2022-09-12T04:15:33.843Z,16.17
2022-09-12T04:16:36.351Z,16.17
2022-09-12T04:17:38.170Z,16.17
2022-09-12T04:18:40.753Z,16.17
2022-09-12T04:19:42.295Z,16.16
2022-09-12T04:20:44.793Z,16.16
2022-09-12T04:21:46.384Z,16.17
2022-09-12T04:22:50.275Z,16.16
2022-09-12T04:23:51.838Z,16.16
2022-09-12T04:24:54.324Z,16.17
2022-09-12T04:25:56.507Z,16.16
2022-09-12T04:26:59.285Z,16.15
2022-09-12T04:28:01.054Z,16.14
2022-09-12T04:29:03.629Z,16.14
2022-09-12T04:30:06.348Z,16.14
2022-09-12T04:31:12.270Z,16.13
2022-09-12T04:32:14.986Z,16.13
2022-09-12T04:33:17.795Z,16.12
2022-09-12T04:34:20.356Z,16.13
2022-09-12T04:35:21.913Z,16.12
2022-09-12T04:36:25.561Z,16.12
2022-09-12T04:37:27.083Z,16.12
2022-09-12T04:38:30.911Z,16.11
2022-09-12T04:39:32.508Z,16.12
2022-09-12T04:40:35.009Z,16.11
2022-09-12T04:41:38.862Z,16.10
2022-09-12T04:42:41.402Z,16.10
2022-09-12T04:43:46.287Z,16.11
2022-09-12T04:44:49.436Z,16.10
2022-09-12T04:45:51.878Z,16.10
2022-09-12T04:46:54.772Z,16.09
2022-09-12T04:47:56.449Z,16.10
2022-09-12T04:48:58.939Z,16.10
2022-09-12T04:50:00.431Z,16.11
2022-09-12T04:51:11.081Z,16.10
2022-09-12T04:52:12.600Z,16.11
2022-09-12T04:53:15.172Z,16.10
2022-09-12T04:54:19.556Z,16.10
2022-09-12T04:55:25.214Z,16.10
2022-09-12T04:56:28.463Z,16.09
2022-09-12T04:57:30.973Z,16.10
2022-09-12T04:58:33.114Z,16.11
2022-09-12T04:59:35.625Z,16.11
2022-09-12T05:00:37.145Z,16.12
2022-09-12T05:01:40.036Z,16.12
2022-09-12T05:02:42.155Z,16.14
2022-09-12T05:03:45.634Z,16.15
2022-09-12T05:04:47.176Z,16.15
2022-09-12T05:05:53.257Z,16.17
2022-09-12T05:06:57.356Z,16.16
2022-09-12T05:08:00.159Z,16.17
2022-09-12T05:09:03.260Z,16.19
2022-09-12T05:10:08.275Z,16.18
2022-09-12T05:11:13.340Z,16.19
2022-09-12T05:12:15.823Z,16.19
2022-09-12T05:13:17.359Z,16.20
2022-09-12T05:14:19.914Z,16.19
2022-09-12T05:15:21.503Z,16.21
2022-09-12T05:16:25.789Z,16.20
2022-09-12T05:17:29.113Z,16.21
2022-09-12T05:18:32.745Z,16.22
2022-09-12T05:19:35.479Z,16.22
2022-09-12T05:20:37.253Z,16.21
2022-09-12T05:21:40.317Z,16.22
2022-09-12T05:22:41.903Z,16.23
2022-09-12T05:23:44.574Z,16.24
2022-09-12T05:24:50.429Z,16.24
2022-09-12T05:25:57.511Z,16.26
2022-09-12T05:27:00.181Z,16.25
2022-09-12T05:28:02.122Z,16.29
2022-09-12T05:29:05.460Z,16.29
2022-09-12T05:30:08.490Z,16.31
2022-09-12T05:31:14.353Z,16.32
2022-09-12T05:32:15.932Z,16.34
2022-09-12T05:33:22.013Z,16.35
2022-09-12T05:34:27.773Z,16.36
2022-09-12T05:35:29.390Z,16.39
2022-09-12T05:36:32.092Z,16.42
2022-09-12T05:37:33.651Z,16.45
2022-09-12T05:38:37.325Z,16.48
2022-09-12T05:39:38.999Z,16.53
2022-09-12T05:40:41.525Z,16.56
2022-09-12T05:41:44.442Z,16.61
2022-09-12T05:42:46.932Z,16.65
2022-09-12T05:43:52.875Z,16.71
2022-09-12T05:44:55.354Z,16.74
2022-09-12T05:46:00.987Z,16.79
2022-09-12T05:47:03.593Z,16.83
2022-09-12T05:48:05.302Z,16.87
2022-09-12T05:49:09.744Z,16.91
2022-09-12T05:50:12.207Z,16.95
2022-09-12T05:51:19.237Z,16.99
2022-09-12T05:52:20.881Z,17.03
2022-09-12T05:53:28.051Z,17.08
2022-09-12T05:54:31.788Z,17.12
2022-09-12T05:55:34.118Z,17.16
2022-09-12T05:56:40.256Z,17.19
2022-09-12T05:57:45.981Z,17.25
2022-09-12T05:58:54.033Z,17.27
2022-09-12T05:59:55.601Z,17.29
2022-09-12T06:01:03.073Z,17.32
2022-09-12T06:02:05.639Z,17.33
2022-09-12T06:03:07.277Z,17.35
2022-09-12T06:04:10.497Z,17.38
2022-09-12T06:05:12.066Z,17.40
2022-09-12T06:06:16.057Z,17.42
2022-09-12T06:07:17.609Z,17.43
2022-09-12T06:08:20.127Z,17.43
2022-09-12T06:09:22.757Z,17.47
2022-09-12T06:10:26.270Z,17.49
2022-09-12T06:11:31.074Z,17.50
2022-09-12T06:12:32.663Z,17.52
2022-09-12T06:13:38.399Z,17.54
2022-09-12T06:14:40.934Z,17.55
2022-09-12T06:15:42.466Z,17.58
2022-09-12T06:16:45.378Z,17.61
2022-09-12T06:17:51.365Z,17.65
2022-09-12T06:18:55.890Z,17.66
2022-09-12T06:19:57.465Z,17.68
2022-09-12T06:21:03.791Z,17.70
2022-09-12T06:22:06.278Z,17.70
2022-09-12T06:23:07.842Z,17.72
2022-09-12T06:24:10.712Z,17.73
2022-09-12T06:25:12.409Z,17.73
2022-09-12T06:26:16.603Z,17.76
2022-09-12T06:27:18.723Z,17.77
2022-09-12T06:28:21.370Z,17.79
2022-09-12T06:29:25.760Z,17.81
2022-09-12T06:30:27.903Z,17.83
2022-09-12T06:31:33.081Z,17.86
2022-09-12T06:32:34.777Z,17.88
2022-09-12T06:33:39.150Z,17.91
2022-09-12T06:34:40.727Z,17.92
2022-09-12T06:35:43.649Z,17.94
2022-09-12T06:36:47.781Z,17.98
2022-09-12T06:37:49.512Z,18.00
2022-09-12T06:38:56.115Z,18.01
2022-09-12T06:39:57.814Z,18.03
2022-09-12T06:41:00.553Z,18.04
2022-09-12T06:42:03.577Z,18.07
2022-09-12T06:43:05.770Z,18.07
2022-09-12T06:44:08.370Z,18.09
2022-09-12T06:45:11.616Z,18.11
2022-09-12T06:46:14.135Z,18.13
2022-09-12T06:47:15.840Z,18.14
2022-09-12T06:48:18.504Z,18.17
2022-09-12T06:49:20.154Z,18.19
2022-09-12T06:50:22.648Z,18.20
2022-09-12T06:51:24.497Z,18.23
2022-09-12T06:52:29.030Z,18.25
2022-09-12T06:53:33.225Z,18.29
2022-09-12T06:54:35.830Z,18.30
2022-09-12T06:55:37.342Z,18.33
2022-09-12T06:56:39.877Z,18.36
2022-09-12T06:57:41.412Z,18.38
2022-09-12T06:58:44.826Z,18.39
2022-09-12T06:59:46.392Z,18.41
2022-09-12T07:00:50.336Z,18.44
2022-09-12T07:01:51.971Z,18.44
2022-09-12T07:02:56.331Z,18.47
2022-09-12T07:04:00.158Z,18.49
2022-09-12T07:05:02.944Z,18.48
2022-09-12T07:06:06.302Z,18.50
2022-09-12T07:07:09.188Z,18.51
2022-09-12T07:08:10.764Z,18.51
2022-09-12T07:09:17.258Z,18.53
2022-09-12T07:10:22.215Z,18.54
2022-09-12T07:11:26.959Z,18.56
2022-09-12T07:12:28.922Z,18.56
2022-09-12T07:13:31.448Z,18.57
2022-09-12T07:14:34.026Z,18.56
2022-09-12T07:15:36.286Z,18.59
2022-09-12T07:16:40.322Z,18.58
2022-09-12T07:17:41.935Z,18.58
2022-09-12T07:18:46.141Z,18.59
2022-09-12T07:19:47.738Z,18.60
2022-09-12T07:20:50.224Z,18.58
2022-09-12T07:21:55.321Z,18.60
2022-09-12T07:23:01.106Z,18.59
2022-09-12T07:24:47.672Z,18.57
2022-09-12T07:25:53.161Z,18.57
2022-09-12T07:26:56.029Z,18.55
2022-09-12T07:27:57.540Z,18.54
2022-09-12T07:29:25.244Z,18.57
2022-09-12T07:30:23.346Z,18.57
2022-09-12T07:31:27.445Z,18.56
2022-09-12T07:32:36.274Z,18.57
2022-09-12T07:33:38.802Z,18.61
2022-09-12T07:34:41.294Z,18.61
2022-09-12T07:35:42.843Z,18.62
2022-09-12T07:36:45.506Z,18.64
2022-09-12T07:37:47.201Z,18.67
2022-09-12T07:38:57.219Z,18.69
2022-09-12T07:39:59.367Z,18.73
2022-09-12T07:41:02.397Z,18.75
2022-09-12T07:42:04.316Z,18.80
2022-09-12T07:43:06.961Z,18.85
2022-09-12T07:44:09.560Z,18.87
2022-09-12T07:45:11.269Z,18.90
2022-09-12T07:46:14.491Z,18.94
2022-09-12T07:47:16.041Z,18.98
2022-09-12T07:48:19.898Z,19.00
2022-09-12T07:49:21.455Z,19.02
2022-09-12T07:50:24.266Z,19.04
2022-09-12T07:51:27.349Z,19.08
2022-09-12T07:52:29.937Z,19.10
2022-09-12T07:53:33.949Z,19.11
2022-09-12T07:54:36.542Z,19.13
2022-09-12T07:55:38.141Z,19.14
2022-09-12T07:56:40.771Z,19.13
2022-09-12T07:57:42.325Z,19.12
2022-09-12T07:58:45.600Z,19.11
2022-09-12T07:59:52.897Z,19.13
2022-09-12T08:00:55.910Z,19.11
2022-09-12T08:01:58.699Z,19.12
2022-09-12T08:03:00.231Z,19.13
2022-09-12T08:04:05.023Z,19.14
2022-09-12T08:05:07.158Z,19.13
2022-09-12T08:06:11.545Z,19.14
2022-09-12T08:07:14.652Z,19.15
2022-09-12T08:08:16.173Z,19.15
2022-09-12T08:09:18.849Z,19.16
2022-09-12T08:10:20.560Z,19.17
2022-09-12T08:11:24.986Z,19.18
2022-09-12T08:12:28.878Z,19.19
2022-09-12T08:13:32.280Z,19.17
2022-09-12T08:14:47.862Z,19.17
2022-09-12T08:15:51.801Z,19.17
2022-09-12T08:16:57.525Z,19.20
2022-09-12T08:17:59.125Z,19.21
2022-09-12T08:19:02.433Z,19.25
2022-09-12T08:20:06.396Z,19.29
2022-09-12T08:21:13.644Z,19.31
2022-09-12T08:22:16.176Z,19.34
2022-09-12T08:23:17.937Z,19.37
2022-09-12T08:24:20.446Z,19.39
2022-09-12T08:25:21.975Z,19.42
2022-09-12T08:26:25.081Z,19.46
2022-09-12T08:27:27.577Z,19.48
2022-09-12T08:28:29.993Z,19.51
2022-09-12T08:29:32.472Z,19.57
2022-09-12T08:30:34.037Z,19.61
2022-09-12T08:31:37.246Z,19.65
2022-09-12T08:32:38.790Z,19.68
2022-09-12T08:33:41.601Z,19.72
2022-09-12T08:34:43.137Z,19.73
2022-09-12T08:35:47.420Z,19.76
2022-09-12T08:36:49.882Z,19.79
2022-09-12T08:37:51.429Z,19.84
2022-09-12T08:38:59.877Z,19.86
2022-09-12T08:40:06.559Z,19.92
2022-09-12T08:41:21.844Z,19.98
2022-09-12T08:42:33.650Z,20.04
2022-09-12T08:44:00.541Z,20.10
2022-09-12T08:45:14.765Z,20.16
2022-09-12T08:46:21.606Z,20.21
2022-09-12T08:47:29.691Z,20.28
2022-09-12T08:48:31.365Z,20.34
2022-09-12T08:49:39.693Z,20.42
2022-09-12T08:50:49.256Z,20.50
2022-09-12T08:51:55.142Z,20.56
2022-09-12T08:53:02.863Z,20.60
2022-09-12T08:54:09.789Z,20.65
2022-09-12T08:55:28.468Z,20.68
2022-09-12T08:56:37.331Z,20.73
2022-09-12T08:57:39.536Z,20.76
2022-09-12T08:58:44.151Z,20.79
2022-09-12T08:59:46.353Z,20.82
2022-09-12T09:00:56.538Z,20.86
2022-09-12T09:02:00.892Z,20.88
2022-09-12T09:03:30.828Z,20.91
2022-09-12T09:04:42.842Z,20.91
2022-09-12T09:05:52.118Z,20.89
2022-09-12T09:07:15.591Z,20.87
2022-09-12T09:08:28.789Z,20.84
2022-09-12T09:09:43.820Z,20.83
2022-09-12T09:10:51.863Z,20.82
2022-09-12T09:12:00.615Z,20.81
2022-09-12T09:13:35.133Z,20.78
2022-09-12T09:14:49.513Z,20.74
2022-09-12T09:16:04.073Z,20.71
2022-09-12T09:17:11.319Z,20.68
2022-09-12T09:18:20.928Z,20.66
2022-09-12T09:19:28.026Z,20.64
2022-09-12T09:20:37.191Z,20.61
2022-09-12T09:21:43.438Z,20.60
2022-09-12T09:22:50.845Z,20.57
2022-09-12T09:23:59.988Z,20.55
2022-09-12T09:25:08.913Z,20.52
2022-09-12T09:26:16.337Z,20.52
2022-09-12T09:27:40.582Z,20.52
2022-09-12T09:28:47.622Z,20.52
2022-09-12T09:29:53.096Z,20.54
2022-09-12T09:30:55.869Z,20.54
2022-09-12T09:32:03.341Z,20.56
2022-09-12T09:33:12.481Z,20.55
2022-09-12T09:34:19.757Z,20.57
2022-09-12T09:35:32.161Z,20.57
2022-09-12T09:36:49.352Z,20.57
2022-09-12T09:38:01.767Z,20.59
2022-09-12T09:39:07.161Z,20.60
2022-09-12T09:40:18.924Z,20.63
2022-09-12T09:41:36.110Z,20.63
2022-09-12T09:42:45.074Z,20.65
2022-09-12T09:43:48.036Z,20.66
2022-09-12T09:44:53.107Z,20.70
2022-09-12T09:45:57.390Z,20.73
2022-09-12T09:47:00.241Z,20.77
2022-09-12T09:48:16.051Z,20.81
2022-09-12T09:49:19.339Z,20.81
2022-09-12T09:50:22.533Z,20.85
2022-09-12T09:51:28.084Z,20.88
2022-09-12T09:52:32.809Z,20.90
2022-09-12T09:53:41.624Z,20.93
2022-09-12T09:54:49.471Z,20.94
2022-09-12T09:55:53.939Z,20.98
2022-09-12T09:56:57.148Z,21.00
2022-09-12T09:57:58.721Z,21.02
2022-09-12T09:59:11.781Z,21.05
2022-09-12T10:00:30.513Z,21.05
2022-09-12T10:01:32.344Z,21.04
2022-09-12T10:02:35.171Z,21.05
2022-09-12T10:03:39.023Z,21.08
2022-09-12T10:04:53.464Z,21.10
2022-09-12T10:05:58.719Z,21.14
2022-09-12T10:07:03.235Z,21.17
2022-09-12T10:08:07.767Z,21.20
2022-09-12T10:09:23.734Z,21.23
2022-09-12T10:10:25.541Z,21.25
2022-09-12T10:11:30.209Z,21.25
2022-09-12T10:12:31.768Z,21.27
2022-09-12T10:13:38.508Z,21.28
2022-09-12T10:14:42.860Z,21.30
2022-09-12T10:15:57.112Z,21.32
2022-09-12T10:16:59.939Z,21.34
2022-09-12T10:18:03.023Z,21.37
2022-09-12T10:19:05.743Z,21.38
2022-09-12T10:20:31.159Z,21.39
2022-09-12T10:21:39.349Z,21.42
2022-09-12T10:22:47.533Z,21.44
2022-09-12T10:23:59.836Z,21.47
2022-09-12T10:25:11.857Z,21.49
2022-09-12T10:26:15.397Z,21.51
2022-09-12T10:27:21.315Z,21.54
2022-09-12T10:28:30.067Z,21.56
2022-09-12T10:29:36.125Z,21.57
2022-09-12T10:30:37.859Z,21.58
2022-09-12T10:31:48.314Z,21.62
2022-09-12T10:32:51.409Z,21.61
2022-09-12T10:33:55.525Z,21.65
2022-09-12T10:35:00.581Z,21.67
2022-09-12T10:36:03.730Z,21.70
2022-09-12T10:37:08.741Z,21.73
2022-09-12T10:38:19.566Z,21.75
2022-09-12T10:39:22.446Z,21.78
2022-09-12T10:40:29.237Z,21.81
2022-09-12T10:41:37.836Z,21.83
2022-09-12T10:42:47.225Z,21.88
2022-09-12T10:43:50.652Z,21.91
2022-09-12T10:44:54.094Z,21.95
2022-09-12T10:45:58.813Z,21.97
2022-09-12T10:47:21.050Z,21.99
2022-09-12T10:48:27.884Z,22.00
2022-09-12T10:49:37.925Z,22.01
2022-09-12T10:50:41.332Z,22.04
2022-09-12T10:51:43.949Z,22.06
2022-09-12T10:52:46.424Z,22.06
2022-09-12T10:53:48.091Z,22.09
2022-09-12T10:54:50.961Z,22.10
2022-09-12T10:56:03.776Z,22.12
2022-09-12T10:57:31.348Z,22.14
2022-09-12T10:59:04.315Z,22.13
2022-09-12T11:00:15.644Z,22.14
2022-09-12T11:01:30.327Z,22.16
2022-09-12T11:02:49.124Z,22.17
2022-09-12T11:04:11.194Z,22.19
2022-09-12T11:05:22.448Z,22.21
2022-09-12T11:06:34.132Z,22.25
2022-09-12T11:07:43.829Z,22.28
2022-09-12T11:08:59.329Z,22.32
2022-09-12T11:10:12.071Z,22.35
2022-09-12T11:11:31.990Z,22.37
2022-09-12T11:12:41.213Z,22.38
2022-09-12T11:14:00.937Z,22.42
2022-09-12T11:15:24.913Z,22.45
2022-09-12T11:16:33.559Z,22.47
2022-09-12T11:17:49.276Z,22.51
2022-09-12T11:19:17.329Z,22.55
2022-09-12T11:20:45.917Z,22.57
2022-09-12T11:22:00.441Z,22.61
2022-09-12T11:23:24.870Z,22.62
2022-09-12T11:24:44.085Z,22.62
2022-09-12T11:25:52.605Z,22.64
2022-09-12T11:27:08.844Z,22.65
2022-09-12T11:28:31.024Z,22.65
2022-09-12T11:29:47.929Z,22.67
2022-09-12T11:31:05.925Z,22.71
2022-09-12T11:32:47.553Z,22.71
2022-09-12T11:33:52.376Z,22.75
2022-09-12T11:35:04.988Z,22.78
2022-09-12T11:36:21.481Z,22.81
2022-09-12T11:37:39.837Z,22.86
2022-09-12T11:39:00.310Z,22.90
2022-09-12T11:40:17.516Z,22.91
2022-09-12T11:41:26.184Z,22.92
2022-09-12T11:42:34.235Z,22.95
2022-09-12T11:43:43.255Z,22.98
2022-09-12T11:44:54.368Z,23.00
2022-09-12T11:46:01.348Z,23.01
2022-09-12T11:47:09.054Z,23.02
2022-09-12T11:48:32.375Z,23.02
2022-09-12T11:49:38.616Z,23.02
2022-09-12T11:50:40.672Z,23.00
2022-09-12T11:51:50.745Z,23.01
2022-09-12T11:52:56.129Z,23.01
2022-09-12T11:54:05.832Z,23.01
2022-09-12T11:55:17.031Z,23.02
2022-09-12T11:56:19.773Z,23.02
2022-09-12T11:57:31.745Z,23.02
2022-09-12T11:58:37.064Z,23.02
2022-09-12T11:59:47.153Z,23.03
2022-09-12T12:00:53.469Z,23.03
2022-09-12T12:02:00.169Z,23.06
2022-09-12T12:03:10.089Z,23.07
2022-09-12T12:04:14.087Z,23.09
2022-09-12T12:05:21.782Z,23.11
2022-09-12T12:06:31.446Z,23.13
2022-09-12T12:07:44.734Z,23.13
2022-09-12T12:08:51.388Z,23.11
2022-09-12T12:09:53.206Z,23.14
2022-09-12T12:10:59.506Z,23.15
2022-09-12T12:12:06.672Z,23.14
2022-09-12T12:13:19.212Z,23.13
2022-09-12T12:14:25.666Z,23.12
2022-09-12T12:15:30.370Z,23.14
2022-09-12T12:16:34.119Z,23.16
2022-09-12T12:17:36.770Z,23.17
2022-09-12T12:18:39.997Z,23.18
2022-09-12T12:19:42.931Z,23.19
2022-09-12T12:20:44.845Z,23.21
2022-09-12T12:21:49.137Z,23.22
2022-09-12T12:22:52.013Z,23.25
2022-09-12T12:24:13.733Z,23.28
2022-09-12T12:25:41.059Z,23.29
2022-09-12T12:26:57.298Z,23.30
2022-09-12T12:28:01.909Z,23.33
2022-09-12T12:29:03.725Z,23.35
2022-09-12T12:30:56.817Z,23.37
2022-09-12T12:32:21.182Z,23.35
2022-09-12T12:34:06.174Z,23.35
2022-09-12T12:35:39.939Z,23.34
2022-09-12T12:36:42.905Z,23.36
2022-09-12T12:37:53.383Z,23.40
2022-09-12T12:38:55.094Z,23.42
2022-09-12T12:40:01.101Z,23.45
2022-09-12T12:41:41.184Z,23.43
2022-09-12T12:43:02.737Z,23.41
2022-09-12T12:44:51.301Z,23.40
2022-09-12T12:46:04.867Z,23.40
2022-09-12T12:47:19.658Z,23.42
2022-09-12T12:48:22.134Z,23.44
2022-09-12T12:49:29.490Z,23.46
2022-09-12T12:50:32.097Z,23.46
2022-09-12T12:51:50.313Z,23.48
2022-09-12T12:52:54.243Z,23.48
2022-09-12T12:53:58.160Z,23.50
2022-09-12T12:55:03.309Z,23.52
2022-09-12T12:56:05.383Z,23.56
2022-09-12T12:57:20.178Z,23.58
2022-09-12T12:58:29.751Z,23.60
2022-09-12T12:59:33.561Z,23.61
2022-09-12T13:00:39.780Z,23.63
2022-09-12T13:01:54.776Z,23.67
2022-09-12T13:03:01.905Z,23.70
2022-09-12T13:04:11.265Z,23.73
2022-09-12T13:05:22.197Z,23.76
2022-09-12T13:06:32.520Z,23.79
2022-09-12T13:07:39.649Z,23.81
2022-09-12T13:08:55.143Z,23.83
2022-09-12T13:10:00.146Z,23.84
2022-09-12T13:11:15.718Z,23.88
2022-09-12T13:12:21.423Z,23.91
2022-09-12T13:13:28.217Z,23.92
2022-09-12T13:14:48.776Z,23.91
2022-09-12T13:15:53.205Z,23.91
2022-09-12T13:17:00.122Z,23.92
2022-09-12T13:18:06.197Z,23.95
2022-09-12T13:19:18.386Z,23.96
2022-09-12T13:20:29.468Z,23.98
2022-09-12T13:21:32.394Z,23.98
2022-09-12T13:22:43.266Z,24.01
2022-09-12T13:24:02.000Z,24.02
2022-09-12T13:25:19.343Z,24.03
2022-09-12T13:26:25.199Z,24.04
2022-09-12T13:27:26.738Z,24.05
2022-09-12T13:28:30.825Z,24.09
2022-09-12T13:29:32.345Z,24.12
2022-09-12T13:30:36.961Z,24.15
2022-09-12T13:31:39.542Z,24.18
2022-09-12T13:32:44.917Z,24.22
2022-09-12T13:33:50.011Z,24.22
2022-09-12T13:35:07.583Z,24.21
2022-09-12T13:36:38.401Z,24.20
2022-09-12T13:37:53.800Z,24.21
2022-09-12T13:39:09.820Z,24.23
2022-09-12T13:40:27.237Z,24.24
2022-09-12T13:41:47.026Z,24.26
2022-09-12T13:42:49.005Z,24.25
2022-09-12T13:43:52.002Z,24.28
2022-09-12T13:44:58.186Z,24.33
2022-09-12T13:46:00.868Z,24.35
2022-09-12T13:47:03.837Z,24.38
2022-09-12T13:48:14.439Z,24.41
2022-09-12T13:49:23.164Z,24.42
2022-09-12T13:50:27.669Z,24.46
2022-09-12T13:51:32.059Z,24.48
2022-09-12T13:52:36.983Z,24.52
2022-09-12T13:53:44.480Z,24.54
2022-09-12T13:54:50.867Z,24.54
2022-09-12T13:55:56.296Z,24.56
2022-09-12T13:56:59.638Z,24.56
2022-09-12T13:58:04.086Z,24.55
2022-09-12T13:59:11.410Z,24.54
2022-09-12T14:00:19.925Z,24.53
2022-09-12T14:01:22.536Z,24.53
2022-09-12T14:02:28.653Z,24.53
2022-09-12T14:03:54.687Z,24.54
2022-09-12T14:05:09.158Z,24.51
2022-09-12T14:06:11.853Z,24.50
2022-09-12T14:07:20.098Z,24.52
2022-09-12T14:08:24.837Z,24.54
2022-09-12T14:09:31.022Z,24.56
2022-09-12T14:10:36.602Z,24.57
2022-09-12T14:11:39.939Z,24.59
2022-09-12T14:12:43.442Z,24.60
2022-09-12T14:13:46.120Z,24.60
2022-09-12T14:14:50.373Z,24.60
2022-09-12T14:15:55.944Z,24.61
2022-09-12T14:16:58.106Z,24.61
2022-09-12T14:18:03.144Z,24.60
2022-09-12T14:19:06.346Z,24.58
2022-09-12T14:20:15.033Z,24.58
2022-09-12T14:21:31.297Z,24.57
2022-09-12T14:22:36.262Z,24.56
2022-09-12T14:23:41.375Z,24.57